Time;durP1;ratioP1;P1;durP2;ratioP2;P2;SDS_P1;SDS_P2;PMS_P1;PMS_P2;Temp;Humidity;BMP_temperature;BMP_pressure;BME280_temperature;BME280_humidity;BME280_pressure;Samples;Min_cycle;Max_cycle;Signal;HPM_P1;HPM_P2
2022/11/09 00:01:14;;;;;;;22.42;13.60;;;;;;;11.45;53.19;94401.09;5091249;27;20074;-77
2022/11/09 00:03:39;;;;;;;26.77;14.00;;;;;;;11.43;53.20;94391.84;5090923;27;20031;-76
2022/11/09 00:06:04;;;;;;;23.02;13.43;;;;;;;11.55;53.07;94413.41;5090447;27;20387;-77
2022/11/09 00:08:30;;;;;;;23.95;13.75;;;;;;;11.46;52.80;94408.00;5085660;27;20039;-76
2022/11/09 00:11:02;;;;;;;24.08;14.07;;;;;;;11.51;53.16;94418.56;5089788;27;20572;-77
2022/11/09 00:13:27;;;;;;;25.38;12.45;;;;;;;11.57;53.06;94429.91;5070049;28;20028;-77
2022/11/09 00:15:57;;;;;;;19.00;12.57;;;;;;;11.43;52.93;94416.63;5090502;27;20398;-76
2022/11/09 00:18:23;;;;;;;20.55;12.73;;;;;;;11.50;52.89;94427.63;5089383;27;20024;-76
2022/11/09 00:20:48;;;;;;;20.10;12.30;;;;;;;11.52;52.75;94427.34;5089432;27;20048;-76
2022/11/09 00:23:15;;;;;;;21.35;12.80;;;;;;;11.39;52.80;94409.53;5088282;27;20104;-76
2022/11/09 00:25:40;;;;;;;29.15;14.35;;;;;;;11.51;53.04;94428.44;5088191;27;20670;-76
2022/11/09 00:28:05;;;;;;;22.27;12.35;;;;;;;11.36;53.11;94399.47;5089905;27;20034;-76
2022/11/09 00:30:31;;;;;;;19.75;12.60;;;;;;;11.46;53.33;94416.00;5089390;27;20127;-76
2022/11/09 00:32:56;;;;;;;21.25;12.75;;;;;;;11.39;53.50;94404.22;5090974;27;20400;-76
2022/11/09 00:35:22;;;;;;;24.88;14.38;;;;;;;11.44;53.32;94409.41;5089428;27;20475;-76
2022/11/09 00:37:47;;;;;;;23.58;13.48;;;;;;;11.53;53.42;94428.94;5075556;27;20028;-77
2022/11/09 00:40:12;;;;;;;22.15;12.52;;;;;;;11.53;53.59;94426.28;5086860;27;20506;-77
2022/11/09 00:42:38;;;;;;;21.30;12.73;;;;;;;11.34;53.34;94396.34;5090057;27;20027;-76
2022/11/09 00:45:03;;;;;;;20.23;12.10;;;;;;;11.08;53.23;94357.00;5090633;27;20107;-77
2022/11/09 00:47:29;;;;;;;26.27;13.43;;;;;;;11.45;53.38;94413.63;5076591;28;20031;-76
2022/11/09 00:49:54;;;;;;;23.15;13.27;;;;;;;11.54;53.00;94422.53;5088951;28;20047;-77
2022/11/09 00:52:20;;;;;;;25.15;14.13;;;;;;;11.39;53.10;94393.56;5088791;27;20022;-76
2022/11/09 00:54:45;;;;;;;19.58;12.48;;;;;;;11.47;53.40;94411.47;5089499;27;20027;-77
2022/11/09 00:57:12;;;;;;;24.55;14.45;;;;;;;11.51;53.52;94418.56;5087469;27;20035;-76
2022/11/09 00:59:37;;;;;;;27.25;14.15;;;;;;;11.21;53.28;94367.88;5088916;27;20600;-77
2022/11/09 01:02:02;;;;;;;21.40;13.40;;;;;;;11.51;53.36;94423.13;5089201;27;20730;-77
2022/11/09 01:04:28;;;;;;;22.02;12.57;;;;;;;11.43;53.51;94410.50;5090067;27;20016;-76
2022/11/09 01:06:53;;;;;;;24.17;14.45;;;;;;;11.35;53.09;94392.56;5088952;27;20011;-76
2022/11/09 01:09:19;;;;;;;21.52;13.90;;;;;;;11.06;53.03;94359.19;5071660;28;20514;-77
2022/11/09 01:11:44;;;;;;;24.55;13.65;;;;;;;11.17;53.09;94375.69;5075706;28;20453;-76
2022/11/09 01:14:09;;;;;;;23.85;13.68;;;;;;;11.33;53.05;94403.53;5089453;27;20158;-76
2022/11/09 01:16:36;;;;;;;21.15;13.35;;;;;;;11.35;53.25;94412.00;5086964;27;20523;-76
2022/11/09 01:19:01;;;;;;;23.20;13.90;;;;;;;11.38;53.11;94421.28;5071259;27;20026;-76
2022/11/09 01:21:28;;;;;;;24.67;14.90;;;;;;;11.29;53.27;94412.44;5082721;27;20040;-77
2022/11/09 01:23:55;;;;;;;25.90;13.93;;;;;;;11.14;52.86;94382.44;5086966;27;20495;-76
2022/11/09 01:26:20;;;;;;;25.00;14.77;;;;;;;11.29;52.87;94409.78;5089824;27;20031;-77
2022/11/09 01:28:46;;;;;;;22.27;13.30;;;;;;;11.33;52.88;94410.75;5067395;28;20035;-77
2022/11/09 01:31:14;;;;;;;24.75;13.63;;;;;;;11.30;53.03;94411.34;5090318;27;20055;-76
2022/11/09 01:33:40;;;;;;;22.17;13.20;;;;;;;10.91;53.02;94351.53;5090633;27;20028;-77
2022/11/09 01:36:17;;;;;;;22.52;14.02;;;;;;;11.19;53.03;94392.16;5085213;27;20047;-76
2022/11/09 01:38:43;;;;;;;22.60;12.93;;;;;;;11.24;52.86;94407.25;5089565;27;20453;-76
2022/11/09 01:41:14;;;;;;;21.85;12.75;;;;;;;11.21;52.64;94400.63;5089356;27;20024;-77
2022/11/09 01:43:39;;;;;;;26.20;12.60;;;;;;;11.05;52.82;94380.78;5087245;27;20034;-77
2022/11/09 01:46:07;;;;;;;21.50;12.85;;;;;;;11.22;52.64;94404.09;5090206;27;20027;-76
2022/11/09 01:48:48;;;;;;;21.67;13.55;;;;;;;11.13;52.68;94396.81;5088228;27;20750;-77
2022/11/09 01:51:20;;;;;;;19.08;11.70;;;;;;;11.12;52.69;94400.56;5071041;28;20041;-77
2022/11/09 01:53:50;;;;;;;21.48;12.48;;;;;;;11.12;52.79;94397.91;5086945;27;20082;-76
2022/11/09 01:56:16;;;;;;;20.17;11.90;;;;;;;11.07;52.74;94403.34;5088650;27;20024;-77
2022/11/09 01:58:50;;;;;;;22.13;13.23;;;;;;;11.08;52.75;94396.94;5086419;27;20024;-76
2022/11/09 02:01:16;;;;;;;21.63;13.50;;;;;;;11.06;52.89;94407.09;5068743;28;20016;-77
2022/11/09 02:03:49;;;;;;;23.38;13.27;;;;;;;11.05;53.04;94407.41;5087253;28;20146;-76
2022/11/09 02:06:17;;;;;;;23.67;13.25;;;;;;;10.97;52.76;94400.91;5062975;27;20019;-77
2022/11/09 02:08:45;;;;;;;21.75;12.77;;;;;;;10.87;53.16;94390.50;5087215;28;20347;-75
2022/11/09 02:11:16;;;;;;;26.42;13.77;;;;;;;10.79;52.97;94374.47;5088196;27;20028;-77
2022/11/09 02:13:45;;;;;;;23.60;12.35;;;;;;;10.95;53.39;94415.63;5088784;28;20294;-77
2022/11/09 02:16:12;;;;;;;24.65;12.93;;;;;;;10.83;53.39;94392.19;5089658;27;20142;-77
2022/11/09 02:18:47;;;;;;;22.80;13.43;;;;;;;10.92;52.93;94408.22;5067789;28;20383;-76
2022/11/09 02:21:13;;;;;;;21.92;13.25;;;;;;;10.91;53.13;94410.09;5072139;27;20116;-77
2022/11/09 02:23:38;;;;;;;26.73;13.20;;;;;;;10.94;52.77;94414.03;5087149;28;20487;-77
2022/11/09 02:26:09;;;;;;;21.30;12.32;;;;;;;10.88;53.18;94409.91;5085574;27;20504;-77
2022/11/09 02:28:37;;;;;;;21.23;12.80;;;;;;;10.61;53.25;94374.28;5089195;27;20047;-76
2022/11/09 02:31:06;;;;;;;20.50;13.82;;;;;;;10.89;53.30;94417.59;5085495;28;20036;-77
2022/11/09 02:33:43;;;;;;;25.48;13.95;;;;;;;10.72;53.13;94385.50;5088339;28;20024;-76
2022/11/09 02:36:09;;;;;;;23.38;12.52;;;;;;;10.62;53.50;94407.78;5085459;27;20032;-76
2022/11/09 02:38:34;;;;;;;25.00;11.88;;;;;;;10.64;53.39;94399.53;5089272;28;20042;-76
2022/11/09 02:41:00;;;;;;;20.23;12.60;;;;;;;10.66;53.24;94395.47;5090746;28;20583;-77
2022/11/09 02:43:25;;;;;;;23.30;13.85;;;;;;;10.71;53.45;94405.22;5088752;28;20024;-76
2022/11/09 02:45:51;;;;;;;26.70;14.80;;;;;;;10.73;53.42;94403.06;5073325;28;20511;-77
2022/11/09 02:48:16;;;;;;;23.05;13.25;;;;;;;10.61;54.08;94386.84;5087074;28;20035;-76
2022/11/09 02:50:41;;;;;;;21.42;12.30;;;;;;;10.60;53.96;94382.59;5069570;28;20031;-76
2022/11/09 02:53:07;;;;;;;21.17;14.10;;;;;;;10.54;53.88;94378.47;5071051;28;20364;-77
2022/11/09 02:55:32;;;;;;;18.45;11.23;;;;;;;10.61;53.90;94392.91;5087941;28;20027;-77
2022/11/09 02:57:57;;;;;;;20.75;12.73;;;;;;;10.59;53.77;94387.13;5089083;28;20119;-76
2022/11/09 03:00:23;;;;;;;22.42;14.13;;;;;;;10.51;53.94;94379.06;5087412;28;20034;-76
2022/11/09 03:02:48;;;;;;;19.85;12.70;;;;;;;10.42;54.07;94362.22;5084510;28;20126;-77
2022/11/09 03:05:14;;;;;;;20.23;13.57;;;;;;;10.74;53.67;94404.63;5086954;28;20095;-77
2022/11/09 03:07:39;;;;;;;19.50;11.82;;;;;;;10.72;53.79;94417.44;5073485;28;20039;-77
2022/11/09 03:10:05;;;;;;;23.77;12.73;;;;;;;10.65;53.81;94403.75;5087742;28;20020;-76
2022/11/09 03:12:30;;;;;;;23.08;13.07;;;;;;;10.57;53.52;94399.91;5084901;28;20031;-77
2022/11/09 03:15:02;;;;;;;22.73;14.50;;;;;;;10.73;53.59;94414.47;5087000;28;20035;-77
2022/11/09 03:17:27;;;;;;;26.30;12.98;;;;;;;10.72;53.76;94423.53;5085784;28;20509;-77
2022/11/09 03:19:54;;;;;;;24.58;15.25;;;;;;;10.71;53.67;94416.66;5088830;28;20047;-76
2022/11/09 03:22:20;;;;;;;25.60;13.95;;;;;;;10.59;53.55;94397.75;5087184;28;20020;-76
2022/11/09 03:24:46;;;;;;;21.20;13.63;;;;;;;10.76;53.30;94417.66;5087521;28;20038;-77
2022/11/09 03:27:12;;;;;;;22.77;13.98;;;;;;;10.74;53.59;94409.94;5090015;28;20478;-76
2022/11/09 03:29:37;;;;;;;25.88;13.52;;;;;;;10.64;53.35;94395.00;5085174;28;20309;-78
2022/11/09 03:32:04;;;;;;;21.08;13.00;;;;;;;10.74;53.59;94415.28;5088066;28;20031;-75
2022/11/09 03:34:29;;;;;;;17.65;11.57;;;;;;;10.76;53.50;94423.72;5085286;28;20098;-75
2022/11/09 03:36:54;;;;;;;22.75;13.02;;;;;;;10.74;53.61;94416.06;5088052;28;20505;-75
2022/11/09 03:39:20;;;;;;;21.45;13.05;;;;;;;10.58;53.49;94393.53;5069671;28;20084;-76
2022/11/09 03:41:45;;;;;;;19.48;12.25;;;;;;;10.69;53.72;94415.38;5086050;28;20491;-76
2022/11/09 03:44:11;;;;;;;25.40;13.20;;;;;;;10.69;53.90;94415.38;5088820;28;20089;-76
2022/11/09 03:46:36;;;;;;;25.17;13.43;;;;;;;10.64;53.51;94410.97;5089819;27;20248;-77
2022/11/09 03:49:01;;;;;;;22.63;13.68;;;;;;;10.68;53.44;94417.25;5087257;27;20027;-77
2022/11/09 03:51:27;;;;;;;20.98;12.38;;;;;;;10.73;53.71;94433.09;5091082;27;20707;-77
2022/11/09 03:53:52;;;;;;;23.77;13.48;;;;;;;10.59;53.42;94402.28;5079385;28;20312;-77
2022/11/09 03:56:17;;;;;;;17.58;11.70;;;;;;;10.70;53.49;94423.06;5090838;27;20030;-77
2022/11/09 03:58:43;;;;;;;15.73;10.13;;;;;;;10.58;53.76;94412.16;5090618;27;20023;-77
2022/11/09 04:01:09;;;;;;;20.10;10.65;;;;;;;10.56;53.57;94424.19;5071960;28;20076;-77
2022/11/09 04:03:35;;;;;;;17.48;10.63;;;;;;;10.64;53.67;94437.56;5090668;28;20027;-75
2022/11/09 04:06:00;;;;;;;17.10;10.18;;;;;;;10.63;53.35;94419.22;5089082;27;20027;-77
2022/11/09 04:08:26;;;;;;;14.77;9.75;;;;;;;10.67;53.45;94425.53;5080764;28;20427;-78
2022/11/09 04:10:51;;;;;;;16.85;11.23;;;;;;;10.52;53.67;94415.97;5089258;27;20030;-78
2022/11/09 04:13:16;;;;;;;18.48;9.52;;;;;;;10.41;53.61;94395.22;5090649;27;20499;-77
2022/11/09 04:15:42;;;;;;;19.60;10.50;;;;;;;10.51;53.58;94416.31;5088081;27;20054;-74
2022/11/09 04:18:12;;;;;;;14.75;9.57;;;;;;;10.53;53.63;94414.13;5091992;27;20464;-77
2022/11/09 04:20:37;;;;;;;16.77;9.23;;;;;;;10.62;53.52;94428.28;5088940;27;20047;-77
2022/11/09 04:23:04;;;;;;;17.73;11.30;;;;;;;10.64;53.51;94428.78;5087969;28;20360;-76
2022/11/09 04:25:35;;;;;;;16.05;9.60;;;;;;;10.57;53.45;94420.41;5089387;27;20550;-78
2022/11/09 04:28:02;;;;;;;16.25;9.85;;;;;;;10.55;53.40;94415.41;5077563;28;20558;-76
2022/11/09 04:30:29;;;;;;;20.52;9.45;;;;;;;10.56;53.45;94421.53;5090894;27;20039;-77
2022/11/09 04:32:55;;;;;;;12.93;9.85;;;;;;;10.45;53.18;94406.84;5088100;27;20115;-77
2022/11/09 04:35:21;;;;;;;14.02;9.05;;;;;;;10.25;53.19;94379.56;5093922;27;20088;-77
2022/11/09 04:37:58;;;;;;;16.58;9.57;;;;;;;10.50;53.05;94412.06;5073825;27;20028;-77
2022/11/09 04:40:25;;;;;;;13.82;8.60;;;;;;;10.22;52.96;94366.09;5090537;27;20594;-77
2022/11/09 04:42:51;;;;;;;18.00;9.75;;;;;;;10.09;53.13;94372.16;5071349;28;20364;-76
2022/11/09 04:45:17;;;;;;;16.58;9.90;;;;;;;10.36;53.40;94413.91;5087877;27;20030;-76
2022/11/09 04:47:42;;;;;;;17.95;9.52;;;;;;;10.35;53.24;94417.66;5092532;27;20015;-77
2022/11/09 04:50:08;;;;;;;15.15;9.65;;;;;;;10.38;52.94;94430.38;5079777;28;20843;-77
2022/11/09 04:52:34;;;;;;;15.60;9.52;;;;;;;10.36;53.15;94441.31;5090629;27;20107;-77
2022/11/09 04:54:59;;;;;;;17.90;10.55;;;;;;;10.21;53.41;94413.13;5080962;28;20019;-78
2022/11/09 04:57:24;;;;;;;14.93;10.23;;;;;;;10.40;53.13;94442.31;5087194;27;20058;-76
2022/11/09 04:59:50;;;;;;;15.20;11.02;;;;;;;10.25;53.43;94411.47;5091985;27;20034;-75
2022/11/09 05:02:15;;;;;;;17.95;11.23;;;;;;;10.35;53.36;94422.97;5071155;28;20084;-76
2022/11/09 05:04:41;;;;;;;16.08;10.05;;;;;;;10.41;53.51;94443.09;5091108;28;20039;-75
2022/11/09 05:07:06;;;;;;;16.08;9.75;;;;;;;10.32;53.22;94424.34;5087716;27;20499;-75
2022/11/09 05:09:32;;;;;;;15.32;8.90;;;;;;;10.21;53.50;94421.13;5089855;27;20020;-75
2022/11/09 05:11:57;;;;;;;17.15;9.13;;;;;;;10.37;53.53;94447.44;5068285;28;20044;-75
2022/11/09 05:14:23;;;;;;;18.48;10.40;;;;;;;10.02;53.64;94390.41;5087715;27;20483;-75
2022/11/09 05:16:48;;;;;;;16.67;10.55;;;;;;;10.01;53.90;94392.25;5073453;28;20054;-75
2022/11/09 05:19:13;;;;;;;20.20;11.23;;;;;;;10.39;53.72;94450.56;5086383;28;20044;-78
2022/11/09 05:21:39;;;;;;;19.77;11.82;;;;;;;10.38;53.73;94449.00;5072940;28;20020;-76
2022/11/09 05:24:04;;;;;;;21.10;10.13;;;;;;;10.13;53.69;94410.34;5068368;27;20107;-75
2022/11/09 05:26:31;;;;;;;21.08;11.20;;;;;;;10.32;54.33;94459.69;5089884;27;20055;-77
2022/11/09 05:28:58;;;;;;;19.10;12.13;;;;;;;10.16;54.11;94426.53;5089237;27;20452;-76
2022/11/09 05:31:25;;;;;;;18.90;12.30;;;;;;;10.26;54.32;94447.59;5070076;27;20512;-77
2022/11/09 05:33:51;;;;;;;18.42;10.90;;;;;;;10.28;54.37;94453.41;5087909;28;20039;-77
2022/11/09 05:36:17;;;;;;;15.43;11.60;;;;;;;10.27;54.05;94443.03;5087297;27;20031;-77
2022/11/09 05:38:43;;;;;;;17.35;11.05;;;;;;;10.39;54.05;94466.53;5092064;27;20054;-77
2022/11/09 05:41:09;;;;;;;16.42;11.43;;;;;;;10.14;54.40;94431.34;5087542;28;20514;-77
2022/11/09 05:43:34;;;;;;;19.23;12.10;;;;;;;10.35;54.37;94460.19;5078339;28;20028;-77
2022/11/09 05:46:00;;;;;;;16.90;11.57;;;;;;;10.25;54.25;94446.03;5090212;27;20059;-76
2022/11/09 05:48:25;;;;;;;17.55;11.43;;;;;;;10.41;54.79;94475.00;5089196;27;20085;-77
2022/11/09 05:50:51;;;;;;;20.73;12.02;;;;;;;10.45;54.38;94465.34;5070912;27;20028;-77
2022/11/09 05:53:16;;;;;;;21.92;12.52;;;;;;;10.35;54.62;94468.19;5087826;28;20054;-77
2022/11/09 05:55:41;;;;;;;22.23;12.27;;;;;;;10.41;54.66;94467.03;5084892;27;20107;-78
2022/11/09 05:58:07;;;;;;;17.75;12.13;;;;;;;10.47;54.81;94481.78;5090142;27;20028;-77
2022/11/09 06:00:33;;;;;;;19.73;11.18;;;;;;;10.18;54.61;94429.66;5070944;28;20113;-77
2022/11/09 06:03:07;;;;;;;20.98;12.38;;;;;;;10.25;54.77;94438.03;5089748;27;20051;-77
2022/11/09 06:05:34;;;;;;;24.55;13.95;;;;;;;10.46;54.75;94472.25;5086444;27;20027;-77
2022/11/09 06:08:07;;;;;;;21.65;13.18;;;;;;;10.60;54.94;94494.31;5091358;27;20516;-77
2022/11/09 06:10:33;;;;;;;22.98;12.48;;;;;;;10.54;54.96;94482.19;5067020;28;20111;-78
2022/11/09 06:12:58;;;;;;;24.25;12.98;;;;;;;10.65;54.99;94500.31;5089787;27;20122;-77
2022/11/09 06:15:24;;;;;;;19.10;11.98;;;;;;;10.66;54.95;94498.47;5087822;28;20505;-76
2022/11/09 06:17:54;;;;;;;23.90;14.48;;;;;;;10.62;54.81;94489.47;5089408;27;20023;-76
2022/11/09 06:20:20;;;;;;;19.92;13.13;;;;;;;10.69;55.25;94495.19;5088408;27;20468;-77
2022/11/09 06:22:59;;;;;;;20.85;12.13;;;;;;;10.75;55.11;94494.00;5089160;27;20055;-76
2022/11/09 06:25:25;;;;;;;26.85;13.07;;;;;;;10.64;55.17;94476.66;5087549;27;20031;-78
2022/11/09 06:27:53;;;;;;;23.52;13.57;;;;;;;10.84;54.98;94502.88;5087682;28;20544;-77
2022/11/09 06:30:19;;;;;;;21.00;12.93;;;;;;;10.68;55.46;94474.97;5077458;28;20016;-77
2022/11/09 06:32:44;;;;;;;25.27;15.82;;;;;;;10.71;55.56;94475.16;5085657;28;20027;-77
2022/11/09 06:35:10;;;;;;;24.08;14.57;;;;;;;10.78;55.88;94474.78;5088301;28;20035;-76
2022/11/09 06:37:35;;;;;;;23.17;14.40;;;;;;;10.97;55.97;94502.06;5087561;28;20020;-77
2022/11/09 06:40:00;;;;;;;24.08;14.13;;;;;;;10.88;56.20;94482.56;5087712;28;20545;-77
2022/11/09 06:42:26;;;;;;;22.67;13.40;;;;;;;10.99;56.29;94491.91;5089373;28;20035;-77
2022/11/09 06:44:51;;;;;;;23.75;13.50;;;;;;;10.93;56.46;94474.47;5085808;28;20471;-77
2022/11/09 06:47:17;;;;;;;21.83;13.80;;;;;;;10.82;56.47;94448.34;5087954;28;20383;-77
2022/11/09 06:49:42;;;;;;;24.17;14.75;;;;;;;11.15;56.54;94497.66;5087697;28;20070;-77
2022/11/09 06:52:07;;;;;;;22.92;14.38;;;;;;;11.17;56.43;94482.97;5080282;28;20223;-77
2022/11/09 06:54:33;;;;;;;25.13;14.88;;;;;;;11.18;56.67;94475.78;5067611;28;20590;-76
2022/11/09 06:56:59;;;;;;;27.50;15.10;;;;;;;11.40;56.97;94501.66;5089525;28;20499;-77
2022/11/09 06:59:24;;;;;;;30.38;16.52;;;;;;;11.44;57.05;94497.31;5087375;28;20106;-77
2022/11/09 07:01:50;;;;;;;27.42;15.88;;;;;;;11.35;57.10;94488.44;5088112;28;20024;-77
2022/11/09 07:04:15;;;;;;;23.48;15.43;;;;;;;11.47;57.27;94496.69;5088264;28;20024;-78
2022/11/09 07:06:41;;;;;;;28.48;17.10;;;;;;;11.57;57.30;94507.16;5083795;28;20167;-77
2022/11/09 07:09:08;;;;;;;29.95;15.43;;;;;;;11.61;57.28;94500.13;5078224;28;20224;-77
2022/11/09 07:11:33;;;;;;;29.17;15.95;;;;;;;11.41;57.51;94473.94;5084096;28;20221;-76
2022/11/09 07:14:00;;;;;;;31.38;17.23;;;;;;;11.59;57.21;94483.66;5079932;28;20394;-76
2022/11/09 07:16:25;;;;;;;27.50;15.90;;;;;;;11.70;57.08;94495.66;5066682;28;20499;-76
2022/11/09 07:18:51;;;;;;;28.17;15.95;;;;;;;11.72;57.21;94482.81;5070194;28;20076;-77
2022/11/09 07:21:17;;;;;;;36.58;16.95;;;;;;;11.82;56.74;94481.78;5090491;27;20032;-77
2022/11/09 07:23:42;;;;;;;28.92;17.60;;;;;;;11.97;56.47;94492.88;5091035;27;20494;-77
2022/11/09 07:26:08;;;;;;;32.53;19.17;;;;;;;11.99;57.17;94496.00;5087109;27;20036;-77
2022/11/09 07:28:34;;;;;;;31.17;17.10;;;;;;;11.86;56.74;94472.88;5075499;27;20024;-76
2022/11/09 07:30:59;;;;;;;26.73;15.85;;;;;;;12.12;56.65;94496.22;5088572;27;20053;-77
2022/11/09 07:33:25;;;;;;;29.42;17.88;;;;;;;12.16;56.88;94497.19;5088982;27;20028;-76
2022/11/09 07:35:50;;;;;;;33.70;18.00;;;;;;;12.13;57.13;94482.56;5086158;27;20395;-77
2022/11/09 07:38:18;;;;;;;31.77;18.10;;;;;;;12.34;56.93;94496.16;5091207;27;20057;-77
2022/11/09 07:40:44;;;;;;;36.90;19.30;;;;;;;12.28;56.75;94476.06;5072195;27;20435;-77
2022/11/09 07:43:10;;;;;;;33.03;17.77;;;;;;;12.47;56.47;94497.94;5083566;27;20107;-77
2022/11/09 07:45:36;;;;;;;29.73;18.30;;;;;;;12.17;56.01;94445.44;5084205;28;20042;-78
2022/11/09 07:48:05;;;;;;;33.10;17.70;;;;;;;12.62;56.06;94499.44;5079534;28;20417;-77
2022/11/09 07:50:31;;;;;;;35.42;19.40;;;;;;;12.61;56.22;94497.91;5089863;27;20020;-77
2022/11/09 07:52:58;;;;;;;31.25;17.73;;;;;;;12.39;56.16;94475.50;5088808;27;20031;-77
2022/11/09 07:55:25;;;;;;;33.88;18.75;;;;;;;12.60;56.23;94497.09;5088112;27;20367;-78
2022/11/09 07:58:02;;;;;;;35.50;18.23;;;;;;;12.75;55.92;94502.03;5083508;27;20020;-77
2022/11/09 08:00:30;;;;;;;32.00;18.40;;;;;;;12.63;55.25;94477.81;5079867;27;20023;-77
2022/11/09 08:02:56;;;;;;;33.50;17.80;;;;;;;12.59;55.10;94481.41;5087668;27;20027;-77
2022/11/09 08:05:21;;;;;;;32.83;19.33;;;;;;;12.48;55.36;94472.84;5080546;27;21117;-77
2022/11/09 08:07:47;;;;;;;38.53;19.60;;;;;;;12.70;55.02;94504.84;5078889;27;20081;-78
2022/11/09 08:10:13;;;;;;;32.83;19.80;;;;;;;12.80;54.67;94501.88;5079844;28;20031;-77
2022/11/09 08:12:39;;;;;;;35.38;19.30;;;;;;;12.84;54.61;94497.50;5086519;27;20027;-77
2022/11/09 08:15:05;;;;;;;39.70;18.73;;;;;;;12.61;54.62;94481.88;5084396;27;20135;-76
2022/11/09 08:17:31;;;;;;;30.65;18.02;;;;;;;12.84;54.47;94497.50;5076565;27;20058;-77
2022/11/09 08:19:56;;;;;;;35.33;19.83;;;;;;;12.78;54.31;94466.69;5083599;28;20513;-77
2022/11/09 08:22:22;;;;;;;31.48;18.38;;;;;;;12.92;53.50;94466.56;5067642;27;20031;-77
2022/11/09 08:24:47;;;;;;;35.70;18.55;;;;;;;13.10;53.08;94489.53;5064488;28;20496;-77
2022/11/09 08:27:13;;;;;;;31.17;17.65;;;;;;;12.92;53.22;94479.91;5065509;28;20054;-77
2022/11/09 08:29:38;;;;;;;33.80;20.30;;;;;;;12.54;54.27;94487.63;5070386;28;20024;-77
2022/11/09 08:32:03;;;;;;;31.15;18.95;;;;;;;12.37;54.50;94471.56;5087960;27;20027;-77
2022/11/09 08:34:29;;;;;;;31.33;17.75;;;;;;;12.56;54.90;94503.34;5085568;27;20519;-77
2022/11/09 08:36:54;;;;;;;35.97;18.80;;;;;;;12.87;53.97;94504.88;5085673;27;20039;-76
2022/11/09 08:39:21;;;;;;;37.53;18.27;;;;;;;12.84;53.81;94489.50;5086407;27;20146;-77
2022/11/09 08:41:47;;;;;;;28.35;17.58;;;;;;;12.83;53.29;94469.22;5085530;27;20031;-78
2022/11/09 08:44:12;;;;;;;30.23;16.40;;;;;;;12.90;52.86;94474.13;5086365;27;20073;-77
2022/11/09 08:46:38;;;;;;;29.17;17.23;;;;;;;13.13;53.43;94501.47;5065904;28;20022;-78
2022/11/09 08:49:03;;;;;;;32.30;19.38;;;;;;;13.21;53.18;94500.69;5068587;27;20359;-77
2022/11/09 08:51:28;;;;;;;35.28;19.33;;;;;;;13.20;52.94;94477.78;5084265;27;20407;-78
2022/11/09 08:53:54;;;;;;;34.63;20.48;;;;;;;13.30;52.90;94480.13;5082573;27;20020;-76
2022/11/09 08:56:20;;;;;;;41.60;20.10;;;;;;;13.48;52.03;94505.75;5083322;27;20042;-77
2022/11/09 08:58:45;;;;;;;34.17;19.05;;;;;;;13.50;51.90;94506.22;5068699;27;20102;-78
2022/11/09 09:01:11;;;;;;;39.88;20.00;;;;;;;13.30;51.39;94469.44;5054535;27;20031;-77
2022/11/09 09:03:37;;;;;;;39.17;21.05;;;;;;;13.47;52.01;94495.38;5086606;27;20032;-77
2022/11/09 09:06:06;;;;;;;38.42;21.88;;;;;;;13.02;52.82;94460.13;5084822;28;20038;-78
2022/11/09 09:08:32;;;;;;;33.08;20.10;;;;;;;13.35;52.84;94505.91;5066569;27;20047;-76
2022/11/09 09:11:02;;;;;;;33.75;18.25;;;;;;;13.26;52.71;94487.97;5063443;27;20031;-77
2022/11/09 09:13:28;;;;;;;35.13;19.75;;;;;;;13.47;52.77;94495.38;5056030;27;20036;-77
2022/11/09 09:15:53;;;;;;;33.20;19.38;;;;;;;13.62;52.44;94495.72;5057103;27;20031;-77
2022/11/09 09:18:19;;;;;;;41.13;21.20;;;;;;;13.21;52.73;94496.13;5055103;28;20031;-76
2022/11/09 09:20:45;;;;;;;42.33;20.10;;;;;;;13.06;53.83;94495.78;5064111;27;20052;-76
2022/11/09 09:23:13;;;;;;;35.17;20.60;;;;;;;13.06;53.65;94477.88;5048284;27;20701;-76
2022/11/09 09:25:38;;;;;;;31.90;18.92;;;;;;;13.11;53.72;94475.06;5080472;27;20552;-77
2022/11/09 09:28:03;;;;;;;32.85;17.42;;;;;;;13.19;54.04;94481.53;5083511;27;20035;-78
2022/11/09 09:30:29;;;;;;;37.38;19.35;;;;;;;13.22;54.08;94475.56;5084259;27;20111;-77
2022/11/09 09:33:00;;;;;;;35.95;19.80;;;;;;;13.18;53.89;94463.94;5084535;27;20059;-78
2022/11/09 09:35:27;;;;;;;30.85;18.45;;;;;;;13.30;53.41;94482.78;5084146;27;20028;-77
2022/11/09 09:37:53;;;;;;;34.45;19.95;;;;;;;13.25;53.98;94480.28;5081362;27;20035;-77
2022/11/09 09:40:30;;;;;;;33.63;18.15;;;;;;;13.24;53.82;94479.50;5082530;28;20597;-76
2022/11/09 09:42:56;;;;;;;33.75;19.13;;;;;;;13.48;53.00;94484.38;5082527;27;20035;-77
2022/11/09 09:45:26;;;;;;;32.95;18.73;;;;;;;13.37;53.48;94471.63;5067409;28;20474;-75
2022/11/09 09:47:59;;;;;;;32.10;18.58;;;;;;;13.60;52.81;94470.41;5084993;27;20024;-76
2022/11/09 09:50:38;;;;;;;34.47;18.80;;;;;;;13.73;52.35;94464.13;5081297;27;20058;-77
2022/11/09 09:53:22;;;;;;;35.40;18.90;;;;;;;13.91;51.85;94464.88;5082407;27;20175;-76
2022/11/09 09:56:22;;;;;;;35.33;19.38;;;;;;;14.00;51.70;94469.09;5081639;28;20028;-77
2022/11/09 09:58:56;;;;;;;32.72;18.23;;;;;;;13.65;51.33;94430.16;5064726;27;20048;-77
2022/11/09 10:01:34;;;;;;;32.17;18.17;;;;;;;14.00;51.46;94457.59;5080389;27;20030;-77
2022/11/09 10:03:59;;;;;;;29.42;16.38;;;;;;;13.67;50.94;94380.63;5077316;27;20035;-75
2022/11/09 10:06:48;;;;;;;29.20;18.27;;;;;;;14.00;51.41;94433.53;5078539;27;20151;-76
2022/11/09 10:09:33;;;;;;;30.00;18.33;;;;;;;14.38;50.99;94447.72;5084675;27;20582;-78
2022/11/09 10:12:07;;;;;;;33.67;19.50;;;;;;;14.26;50.36;94428.09;5089847;27;20119;-76
2022/11/09 10:14:35;;;;;;;28.90;17.15;;;;;;;14.47;50.42;94445.03;5084507;27;20044;-77
2022/11/09 10:17:21;;;;;;;33.58;17.75;;;;;;;14.19;50.41;94447.31;5086666;27;20040;-76
2022/11/09 10:19:52;;;;;;;;;;;;;;;14.25;50.07;94443.38;5087959;27;20051;-77
2022/11/09 10:22:47;;;;;;;28.38;17.33;;;;;;;13.99;50.36;94386.50;5087345;28;19924;-77
2022/11/09 10:25:21;;;;;;;30.52;17.70;;;;;;;14.36;50.10;94433.91;5087640;27;20406;-77
2022/11/09 10:28:13;;;;;;;33.20;17.50;;;;;;;14.16;49.72;94402.50;5084885;27;20016;-78
2022/11/09 10:30:39;;;;;;;33.83;18.92;;;;;;;14.24;49.70;94415.03;5075934;28;20035;-77
2022/11/09 10:33:10;;;;;;;31.95;18.65;;;;;;;14.35;50.14;94437.66;5060344;28;20193;-77
2022/11/09 10:35:41;;;;;;;31.63;17.83;;;;;;;14.40;49.97;94442.84;5088359;28;20076;-77
2022/11/09 10:38:14;;;;;;;31.98;19.02;;;;;;;14.50;49.76;94445.16;5089075;28;20638;-76
2022/11/09 10:40:48;;;;;;;31.10;17.15;;;;;;;14.57;49.34;94429.41;5089416;28;20028;-78
2022/11/09 10:43:14;;;;;;;30.58;18.67;;;;;;;14.58;48.89;94425.63;5087933;28;20062;-77
2022/11/09 10:45:42;;;;;;;27.77;16.00;;;;;;;14.65;49.12;94421.66;5092507;28;20059;-76
2022/11/09 10:48:09;;;;;;;34.90;17.58;;;;;;;14.50;49.14;94397.00;5093600;28;20028;-77
2022/11/09 10:50:47;;;;;;;31.58;17.30;;;;;;;14.74;49.01;94425.84;5089198;28;20028;-77
2022/11/09 10:53:23;;;;;;;31.55;16.75;;;;;;;14.58;48.64;94382.78;5093720;28;20103;-77
2022/11/09 10:56:11;;;;;;;26.27;15.77;;;;;;;14.66;48.05;94377.72;5082770;28;20054;-77
2022/11/09 10:58:46;;;;;;;26.58;15.90;;;;;;;14.93;48.24;94399.44;5096396;27;20031;-77
2022/11/09 11:01:18;;;;;;;26.60;15.98;;;;;;;14.92;47.92;94391.72;5088933;27;20031;-75
2022/11/09 11:03:46;;;;;;;26.33;16.58;;;;;;;15.04;47.65;94400.63;5075844;28;20032;-77
2022/11/09 11:06:21;;;;;;;28.10;16.20;;;;;;;14.96;47.22;94400.69;5095617;28;20023;-76
2022/11/09 11:08:51;;;;;;;27.25;17.33;;;;;;;14.96;47.59;94388.03;5085809;28;20019;-77
2022/11/09 11:11:29;;;;;;;30.25;16.40;;;;;;;14.91;47.35;94395.50;5099222;27;20035;-77
2022/11/09 11:14:13;;;;;;;33.75;17.98;;;;;;;15.07;47.40;94399.16;5098511;27;20020;-78
2022/11/09 11:16:40;;;;;;;29.17;17.38;;;;;;;15.09;47.20;94404.19;5100050;27;20077;-77
2022/11/09 11:19:25;;;;;;;32.22;16.77;;;;;;;15.20;47.84;94386.63;5078929;28;20019;-76